Roseland, Nebraska
Current Conditions -  °F | °C
As of 2:53 AM on Wednesday 22 Oct 2014 (Local Time) from KHSI Reporting Station
Clear Clear  
Wind Chill: 59°   Ceiling: Unl
Heat Index: 59°   Visibility: 10mi
Dew Point: 53°   Wind: 10mph
Humidity: 81%   Direction: 150°SSE
Pressure: 29.99"   Gusts: NA
Location:  40.47°N, 98.56°W
Report Text: KHSI 220753Z AUTO 15009KT 10SM CLR 15/12 A2999 RMK AO2 SLP145 T01500117
Loading
Personal Weather Stations






























Interactive Weather Map
Tropical Storm Tracking
New forecast layout! Learn more

10-Day Weather Forecast

Advertisements
Track Severe Weather on mobile